createdAt,value
2023-03-16T00:01:28.862Z,27.7
2023-03-16T00:07:22.962Z,27.6
2023-03-16T00:13:01.631Z,27.6
2023-03-16T00:18:55.699Z,27.6
2023-03-16T00:24:18.076Z,27.6
2023-03-16T00:29:40.175Z,27.6
2023-03-16T00:35:33.498Z,27.5
2023-03-16T00:41:26.555Z,27.5
2023-03-16T00:47:20.357Z,27.4
2023-03-16T00:52:42.420Z,27.4
2023-03-16T00:58:35.847Z,27.4
2023-03-16T01:04:13.884Z,27.4
2023-03-16T01:10:06.088Z,27.4
2023-03-16T01:15:12.263Z,27.3
2023-03-16T01:21:04.922Z,27.3
2023-03-16T01:26:10.692Z,27.3
2023-03-16T01:31:48.334Z,27.3
2023-03-16T01:37:42.680Z,27.3
2023-03-16T01:43:34.202Z,27.3
2023-03-16T01:48:57.919Z,27.2
2023-03-16T01:54:35.986Z,27.2
2023-03-16T02:00:28.369Z,27.2
2023-03-16T02:05:36.150Z,27.2
2023-03-16T02:11:14.423Z,28.1
2023-03-16T02:17:08.144Z,28.8
2023-03-16T02:22:45.537Z,29.6
2023-03-16T02:28:39.382Z,30.4
2023-03-16T02:34:32.669Z,31.1
2023-03-16T02:40:10.844Z,31.9
2023-03-16T02:45:49.067Z,32.7
2023-03-16T02:51:42.784Z,33.4
2023-03-16T02:57:35.345Z,34.2
2023-03-16T03:02:44.905Z,34.9
2023-03-16T03:08:21.550Z,35.6
2023-03-16T03:14:13.873Z,36.3
2023-03-16T03:20:06.791Z,37.1
2023-03-16T03:25:43.566Z,37.8
2023-03-16T03:31:36.450Z,38.5
2023-03-16T03:37:30.289Z,38.8
2023-03-16T03:42:51.756Z,38.9
2023-03-16T03:48:14.127Z,38.9
2023-03-16T03:53:36.525Z,39
2023-03-16T03:59:00.723Z,39
2023-03-16T04:04:55.012Z,39.1
2023-03-16T04:10:48.049Z,39
2023-03-16T04:16:25.606Z,39.1
2023-03-16T04:22:02.811Z,39.1
2023-03-16T04:27:26.176Z,39.1
2023-03-16T04:32:47.870Z,39
2023-03-16T04:38:41.283Z,39
2023-03-16T04:44:18.981Z,39
2023-03-16T04:49:56.851Z,39
2023-03-16T04:55:34.889Z,38.9
2023-03-16T05:01:27.972Z,38.9
2023-03-16T05:07:27.082Z,38.9
2023-03-16T05:13:03.775Z,38.8
2023-03-16T05:18:25.975Z,38.8
2023-03-16T05:24:18.855Z,38.8
2023-03-16T05:29:56.233Z,38.8
2023-03-16T05:35:21.655Z,38.8
2023-03-16T05:41:15.696Z,38.6
2023-03-16T05:46:54.667Z,38.6
2023-03-16T05:52:32.377Z,38.6
2023-03-16T05:58:26.177Z,38.4
2023-03-16T06:04:19.926Z,38.4
2023-03-16T06:10:13.542Z,38.3
2023-03-16T06:16:06.873Z,38
2023-03-16T06:21:58.588Z,37.8
2023-03-16T06:27:53.313Z,37.7
2023-03-16T06:33:46.410Z,37.6
2023-03-16T06:39:41.948Z,37.4
2023-03-16T06:45:22.609Z,37.3
2023-03-16T06:51:16.892Z,37.1
2023-03-16T06:56:54.618Z,33.5
2023-03-16T07:02:46.997Z,27.1
2023-03-16T07:08:40.025Z,24.6
2023-03-16T07:14:32.624Z,23.3
2023-03-16T07:20:30.828Z,22.5
2023-03-16T07:26:24.231Z,21.9
2023-03-16T07:32:39.107Z,21.4
2023-03-16T07:38:32.528Z,21.1
2023-03-16T07:43:54.292Z,20.8
2023-03-16T07:49:46.561Z,20.6
2023-03-16T07:55:26.066Z,20.5
2023-03-16T08:01:35.162Z,20.3
2023-03-16T08:07:29.109Z,20.3
2023-03-16T08:13:25.182Z,20
2023-03-16T08:19:02.920Z,19.4
2023-03-16T08:25:08.080Z,19.1
2023-03-16T08:31:01.937Z,18.9
2023-03-16T08:36:40.869Z,18.8
2023-03-16T08:48:08.671Z,18.6
2023-03-16T08:53:45.818Z,18.6
2023-03-16T09:00:02.039Z,18.4
2023-03-16T09:05:56.290Z,18.4
2023-03-16T09:11:41.576Z,18.3
2023-03-16T09:17:35.530Z,18.3
2023-03-16T09:23:30.317Z,18.3
2023-03-16T09:29:27.057Z,18.3
2023-03-16T09:35:06.508Z,18.2
2023-03-16T09:41:03.670Z,18.2
2023-03-16T09:46:40.971Z,18.1
2023-03-16T09:52:11.758Z,18.1
2023-03-16T09:57:48.783Z,18.1
2023-03-16T10:03:26.626Z,18.1
2023-03-16T10:09:19.200Z,18.1
2023-03-16T10:15:12.069Z,18
2023-03-16T10:21:04.648Z,18
2023-03-16T10:26:56.857Z,18
2023-03-16T10:32:34.792Z,18
2023-03-16T10:38:15.049Z,18
2023-03-16T10:44:07.943Z,18
2023-03-16T10:50:03.745Z,17.9
2023-03-16T10:55:56.564Z,17.9
2023-03-16T11:01:49.526Z,17.9
2023-03-16T11:07:43.598Z,17.9
2023-03-16T11:13:49.876Z,17.9
2023-03-16T11:19:54.352Z,17.9
2023-03-16T11:25:47.291Z,17.9
2023-03-16T11:31:39.784Z,18
2023-03-16T11:37:51.812Z,18
2023-03-16T11:43:28.998Z,18
2023-03-16T11:49:21.587Z,18
2023-03-16T11:55:13.850Z,18
2023-03-16T12:01:00.782Z,17.9
2023-03-16T12:07:13.973Z,18
2023-03-16T12:12:51.416Z,18
2023-03-16T12:19:01.287Z,18
2023-03-16T12:24:54.308Z,18
2023-03-16T12:30:47.443Z,18
2023-03-16T12:36:25.332Z,17.9
2023-03-16T12:42:17.278Z,18
2023-03-16T12:48:10.115Z,18
2023-03-16T12:53:50.597Z,18
2023-03-16T12:59:28.387Z,18
2023-03-16T13:04:51.829Z,18
2023-03-16T13:10:33.258Z,18
2023-03-16T13:16:11.432Z,18
2023-03-16T13:22:08.358Z,18
2023-03-16T13:28:02.099Z,18
2023-03-16T13:33:24.333Z,18
2023-03-16T13:38:31.332Z,18
2023-03-16T13:44:12.738Z,18
2023-03-16T13:49:50.224Z,18
2023-03-16T13:55:26.379Z,18.1
2023-03-16T14:01:04.848Z,18.1
2023-03-16T14:06:42.762Z,18
2023-03-16T14:12:23.727Z,18.1
2023-03-16T14:18:21.748Z,18.3
2023-03-16T14:24:22.589Z,18.4
2023-03-16T14:30:15.586Z,18.4
2023-03-16T14:36:10.396Z,18.4
2023-03-16T14:41:48.333Z,18.4
2023-03-16T14:47:42.101Z,18.4
2023-03-16T14:53:19.672Z,18.3
2023-03-16T14:59:12.986Z,18.3
2023-03-16T15:05:23.796Z,18.3
2023-03-16T15:11:19.331Z,18.3
2023-03-16T15:16:56.630Z,18.3
2023-03-16T15:22:48.225Z,18.2
2023-03-16T15:28:26.203Z,18.2
2023-03-16T15:34:19.001Z,18.2
2023-03-16T15:39:56.522Z,18.2
2023-03-16T15:46:01.365Z,18.2
2023-03-16T15:52:01.147Z,18.2
2023-03-16T15:58:15.621Z,18.1
2023-03-16T16:04:09.204Z,18.1
2023-03-16T16:09:45.920Z,18.2
2023-03-16T16:15:21.814Z,18.1
2023-03-16T16:21:28.732Z,18.1
2023-03-16T16:27:21.333Z,18.1
2023-03-16T16:32:43.986Z,18.1
2023-03-16T16:37:47.101Z,18.1
2023-03-16T16:43:09.814Z,18.2
2023-03-16T16:48:02.336Z,18.2
2023-03-16T16:53:24.205Z,18.2
2023-03-16T16:58:57.466Z,18.2
2023-03-16T17:04:22.043Z,18.2
2023-03-16T17:09:29.557Z,18.1
2023-03-16T17:14:51.858Z,18.1
2023-03-16T17:20:30.612Z,18.1
2023-03-16T17:26:24.569Z,18
2023-03-16T17:31:47.423Z,17.8
2023-03-16T17:37:10.328Z,17.8
2023-03-16T17:42:53.758Z,17.8
2023-03-16T17:48:46.677Z,17.8
2023-03-16T17:54:40.112Z,17.7
2023-03-16T18:00:18.078Z,17.7
2023-03-16T18:05:58.197Z,17.7
2023-03-16T18:11:51.896Z,17.6
2023-03-16T18:17:15.005Z,17.7
2023-03-16T18:22:37.181Z,17.7
2023-03-16T18:28:31.905Z,17.7
2023-03-16T18:34:25.948Z,17.6
2023-03-16T18:40:18.800Z,17.6
2023-03-16T18:45:56.422Z,17.7
2023-03-16T18:51:34.759Z,17.8
2023-03-16T18:57:28.310Z,17.7
2023-03-16T19:02:50.023Z,17.7
2023-03-16T19:07:59.640Z,17.6
2023-03-16T19:13:20.885Z,17.6
2023-03-16T19:18:59.627Z,17.6
2023-03-16T19:24:21.457Z,17.6
2023-03-16T19:30:15.185Z,17.5
2023-03-16T19:35:50.930Z,17.5
2023-03-16T19:41:28.811Z,17.5
2023-03-16T19:47:22.763Z,17.5
2023-03-16T19:53:15.294Z,17.5
2023-03-16T19:59:08.523Z,17.4
2023-03-16T20:05:01.725Z,17.4
2023-03-16T20:10:39.607Z,17.4
2023-03-16T20:16:33.298Z,17.6
2023-03-16T20:21:56.251Z,18.4
2023-03-16T20:27:17.631Z,19.9
2023-03-16T20:33:10.668Z,21.7
2023-03-16T20:38:49.135Z,23.6
2023-03-16T20:44:27.506Z,25.5
2023-03-16T20:50:04.964Z,27.2
2023-03-16T20:55:26.294Z,28.7
2023-03-16T21:01:19.687Z,30.2
2023-03-16T21:07:13.392Z,31.6
2023-03-16T21:13:15.037Z,32.9
2023-03-16T21:18:38.143Z,33.3
2023-03-16T21:24:30.691Z,33.6
2023-03-16T21:30:24.188Z,33.8
2023-03-16T21:36:17.345Z,33.8
2023-03-16T21:42:11.962Z,33.8
2023-03-16T21:48:05.949Z,33.9
2023-03-16T21:53:59.120Z,33.9
2023-03-16T21:59:23.891Z,33.9
2023-03-16T22:05:29.319Z,33.9
2023-03-16T22:11:22.724Z,33.9
2023-03-16T22:17:00.235Z,33.8
2023-03-16T22:22:53.568Z,33.9
2023-03-16T22:28:31.080Z,33.8
2023-03-16T22:34:08.144Z,33.8
2023-03-16T22:40:01.453Z,33.8
2023-03-16T22:45:53.164Z,33.8
2023-03-16T22:51:31.005Z,33.7
2023-03-16T22:57:24.782Z,33.6
2023-03-16T23:03:18.497Z,33.5
2023-03-16T23:09:11.737Z,33.4
2023-03-16T23:14:51.606Z,33.4
2023-03-16T23:20:57.797Z,33.3
2023-03-16T23:26:58.021Z,33.3
2023-03-16T23:32:36.341Z,33.2
2023-03-16T23:38:13.962Z,33.1
2023-03-16T23:43:51.227Z,33.1
2023-03-16T23:49:29.060Z,33
2023-03-16T23:55:06.473Z,32.9
